Time;durP1;ratioP1;P1;durP2;ratioP2;P2;SDS_P1;SDS_P2;PMS_P1;PMS_P2;Temp;Humidity;BMP_temperature;BMP_pressure;BME280_temperature;BME280_humidity;BME280_pressure;Samples;Min_cycle;Max_cycle;Signal;HPM_P1;HPM_P2
2023/06/21 00:00:15;;;;;;;0.20;0.20;;;19.90;99.90;;;;;;5037042;28;20041;-76
2023/06/21 00:02:44;;;;;;;0.20;0.20;;;20.00;99.90;;;;;;5066028;28;20036;-76
2023/06/21 00:05:11;;;;;;;0.20;0.20;;;19.90;99.90;;;;;;5033389;28;20045;-76
2023/06/21 00:07:41;;;;;;;0.20;0.20;;;19.90;99.90;;;;;;5044576;28;20538;-76
2023/06/21 00:10:10;;;;;;;0.10;0.10;;;19.90;99.90;;;;;;5062590;28;20045;-76
2023/06/21 00:12:35;;;;;;;0.20;0.20;;;19.90;99.90;;;;;;5058098;28;20064;-76
2023/06/21 00:15:02;;;;;;;0.17;0.17;;;19.90;99.90;;;;;;5057191;28;20092;-76
2023/06/21 00:17:28;;;;;;;0.20;0.20;;;19.90;99.90;;;;;;5064538;28;20041;-76
2023/06/21 00:19:56;;;;;;;0.20;0.20;;;19.90;99.90;;;;;;5063615;28;20573;-76
2023/06/21 00:22:22;;;;;;;0.20;0.20;;;19.90;99.90;;;;;;5066764;28;20040;-75
2023/06/21 00:24:52;;;;;;;0.20;0.20;;;19.90;99.90;;;;;;5048119;28;20135;-76
2023/06/21 00:27:18;;;;;;;0.20;0.20;;;19.90;99.90;;;;;;5043548;28;20458;-76
2023/06/21 00:29:44;;;;;;;0.20;0.20;;;19.90;99.90;;;;;;5066031;28;20075;-76
2023/06/21 00:32:10;;;;;;;0.10;0.10;;;19.90;99.90;;;;;;5042227;28;20503;-76
2023/06/21 00:34:35;;;;;;;0.20;0.20;;;19.90;99.90;;;;;;5047899;28;20483;-75
2023/06/21 00:37:04;;;;;;;0.20;0.20;;;19.90;99.90;;;;;;5044407;28;20083;-76
2023/06/21 00:39:30;;;;;;;0.20;0.20;;;19.90;99.90;;;;;;5067833;28;20051;-76
2023/06/21 00:41:57;;;;;;;0.20;0.20;;;19.90;99.90;;;;;;5050617;28;20234;-76
2023/06/21 00:44:22;;;;;;;0.20;0.20;;;19.90;99.90;;;;;;5047421;28;20052;-76
2023/06/21 00:46:51;;;;;;;0.20;0.20;;;19.90;99.90;;;;;;5055480;28;20404;-76
2023/06/21 00:49:16;;;;;;;0.20;0.20;;;19.90;99.90;;;;;;5062327;28;20094;-77
2023/06/21 00:51:44;;;;;;;0.20;0.20;;;19.80;99.90;;;;;;5046514;28;20396;-76
2023/06/21 00:54:18;;;;;;;0.20;0.20;;;19.90;99.90;;;;;;5066307;28;20048;-77
2023/06/21 00:56:45;;;;;;;0.20;0.20;;;19.90;99.90;;;;;;5046232;28;20036;-76
2023/06/21 00:59:11;;;;;;;0.20;0.20;;;19.90;99.90;;;;;;5046928;28;20072;-76
2023/06/21 01:01:37;;;;;;;0.20;0.20;;;19.90;99.90;;;;;;5054533;28;20048;-76
2023/06/21 01:04:10;;;;;;;0.20;0.20;;;19.90;99.90;;;;;;5044142;28;20055;-77
2023/06/21 01:06:45;;;;;;;0.20;0.20;;;19.90;99.90;;;;;;5048228;28;20037;-76
2023/06/21 01:09:40;;;;;;;0.20;0.20;;;19.80;99.90;;;;;;5055042;28;20499;-76
2023/06/21 01:12:43;;;;;;;0.20;0.20;;;19.90;99.90;;;;;;5047679;28;20050;-76
2023/06/21 01:15:23;;;;;;;0.20;0.20;;;19.90;99.90;;;;;;5031838;28;20394;-76
2023/06/21 01:17:52;;;;;;;0.20;0.20;;;19.90;99.90;;;;;;5053564;28;20072;-76
2023/06/21 01:20:24;;;;;;;0.20;0.20;;;19.90;99.90;;;;;;5030971;28;20311;-76
2023/06/21 01:23:22;;;;;;;0.10;0.10;;;19.90;99.90;;;;;;5053349;28;20171;-76
2023/06/21 01:26:23;;;;;;;0.20;0.20;;;19.90;99.90;;;;;;5046690;28;20135;-76
2023/06/21 01:29:13;;;;;;;0.20;0.20;;;19.90;99.90;;;;;;5032851;28;20102;-76
2023/06/21 01:31:42;;;;;;;0.20;0.20;;;19.90;99.90;;;;;;5032888;28;20056;-76
2023/06/21 01:34:09;;;;;;;0.20;0.20;;;19.80;99.90;;;;;;5060533;28;20045;-76
2023/06/21 01:36:39;;;;;;;0.20;0.20;;;19.90;99.90;;;;;;5041219;28;20041;-76
2023/06/21 01:39:08;;;;;;;0.20;0.20;;;19.90;99.90;;;;;;5065704;28;20029;-77
2023/06/21 01:41:35;;;;;;;0.20;0.20;;;19.90;99.90;;;;;;5065637;28;20052;-76
2023/06/21 01:44:05;;;;;;;0.20;0.20;;;19.80;99.90;;;;;;5035479;28;20076;-77
2023/06/21 01:46:31;;;;;;;0.20;0.20;;;19.80;99.90;;;;;;5034108;28;20033;-76
2023/06/21 01:49:00;;;;;;;0.20;0.20;;;19.80;99.90;;;;;;5037518;28;20097;-76
2023/06/21 01:51:26;;;;;;;0.20;0.20;;;19.80;99.90;;;;;;5042522;28;20457;-77
2023/06/21 01:53:52;;;;;;;0.10;0.10;;;19.80;99.90;;;;;;5064245;28;20041;-77
2023/06/21 01:56:18;;;;;;;0.20;0.20;;;19.80;99.90;;;;;;5045471;28;20040;-76
2023/06/21 01:58:48;;;;;;;0.20;0.20;;;19.80;99.90;;;;;;5051721;28;20514;-76
2023/06/21 02:01:15;;;;;;;0.20;0.20;;;19.80;99.90;;;;;;5042025;28;20041;-76
2023/06/21 02:03:46;;;;;;;0.20;0.20;;;19.80;99.90;;;;;;5060541;28;20049;-76
2023/06/21 02:06:13;;;;;;;0.20;0.20;;;19.80;99.90;;;;;;5072874;28;20501;-77
2023/06/21 02:08:39;;;;;;;0.20;0.20;;;19.80;99.90;;;;;;5048975;28;20597;-76
2023/06/21 02:11:04;;;;;;;0.20;0.20;;;19.70;99.90;;;;;;5049813;28;20037;-76
2023/06/21 02:13:30;;;;;;;0.20;0.20;;;19.80;99.90;;;;;;5070602;28;20525;-77
2023/06/21 02:15:56;;;;;;;0.20;0.20;;;19.80;99.90;;;;;;5069312;28;20138;-76
2023/06/21 02:18:23;;;;;;;0.20;0.20;;;19.80;99.90;;;;;;5067152;28;20600;-77
2023/06/21 02:20:50;;;;;;;0.10;0.10;;;19.80;99.90;;;;;;5071776;28;20468;-76
2023/06/21 02:23:16;;;;;;;0.20;0.20;;;19.80;99.90;;;;;;5068896;28;20484;-76
2023/06/21 02:25:41;;;;;;;0.20;0.20;;;19.70;99.90;;;;;;5044087;28;20492;-78
2023/06/21 02:28:07;;;;;;;0.20;0.20;;;19.70;99.90;;;;;;5071792;28;20098;-77
2023/06/21 02:30:33;;;;;;;0.10;0.10;;;19.70;99.90;;;;;;5047090;28;20040;-76
2023/06/21 02:32:58;;;;;;;0.20;0.20;;;19.70;99.90;;;;;;5064051;28;20083;-77
2023/06/21 02:35:24;;;;;;;0.20;0.20;;;19.70;99.90;;;;;;5042147;28;20084;-76
2023/06/21 02:37:50;;;;;;;0.20;0.20;;;19.70;99.90;;;;;;5036365;28;21515;-76
2023/06/21 02:40:16;;;;;;;0.20;0.20;;;19.70;99.90;;;;;;5048949;28;20455;-77
2023/06/21 02:42:42;;;;;;;0.20;0.20;;;19.60;99.90;;;;;;5048633;28;20128;-77
2023/06/21 02:45:09;;;;;;;0.20;0.20;;;19.60;99.90;;;;;;5051024;28;20094;-77
2023/06/21 02:47:35;;;;;;;0.20;0.20;;;19.60;99.90;;;;;;5036915;28;20049;-76
2023/06/21 02:50:02;;;;;;;0.20;0.20;;;19.60;99.90;;;;;;5048512;28;20040;-76
2023/06/21 02:52:27;;;;;;;0.20;0.20;;;19.60;99.90;;;;;;5069069;28;20127;-78
2023/06/21 02:54:53;;;;;;;0.20;0.20;;;19.60;99.90;;;;;;5048375;28;20215;-77
2023/06/21 02:57:19;;;;;;;0.20;0.20;;;19.60;99.90;;;;;;5036307;28;20045;-77
2023/06/21 02:59:48;;;;;;;0.20;0.20;;;19.60;99.90;;;;;;5051207;28;20259;-77
2023/06/21 03:02:16;;;;;;;0.20;0.20;;;19.60;99.90;;;;;;5048002;28;20431;-77
2023/06/21 03:04:42;;;;;;;0.10;0.10;;;19.50;99.90;;;;;;5044238;28;20057;-77
2023/06/21 03:07:08;;;;;;;0.20;0.20;;;19.50;99.90;;;;;;5046141;28;20090;-76
2023/06/21 03:09:34;;;;;;;0.20;0.20;;;19.50;99.90;;;;;;5036118;28;20052;-77
2023/06/21 03:12:08;;;;;;;0.20;0.20;;;19.50;99.90;;;;;;5048002;28;20045;-77
2023/06/21 03:14:37;;;;;;;0.10;0.10;;;19.40;99.90;;;;;;5050740;28;20060;-77
2023/06/21 03:17:06;;;;;;;0.13;0.13;;;19.40;99.90;;;;;;5049074;28;20056;-77
2023/06/21 03:19:32;;;;;;;0.20;0.20;;;19.40;99.90;;;;;;5046992;28;20536;-77
2023/06/21 03:21:58;;;;;;;0.20;0.20;;;19.30;99.90;;;;;;5044062;28;20516;-77
2023/06/21 03:24:23;;;;;;;0.20;0.20;;;19.30;99.90;;;;;;5045686;28;20133;-78
2023/06/21 03:26:49;;;;;;;0.20;0.20;;;19.30;99.90;;;;;;5045993;28;20063;-77
2023/06/21 03:29:15;;;;;;;0.20;0.20;;;19.30;99.90;;;;;;5036607;28;20067;-77
2023/06/21 03:31:40;;;;;;;0.20;0.20;;;19.30;99.90;;;;;;5040831;28;20033;-78
2023/06/21 03:34:06;;;;;;;0.20;0.20;;;19.30;99.90;;;;;;5039316;28;20044;-77
2023/06/21 03:36:31;;;;;;;0.20;0.20;;;19.30;99.90;;;;;;5046358;28;20037;-78
2023/06/21 03:38:57;;;;;;;0.20;0.20;;;19.10;99.90;;;;;;5039060;28;20073;-77
2023/06/21 03:41:23;;;;;;;0.20;0.20;;;19.30;99.90;;;;;;5035191;28;20041;-77
2023/06/21 03:43:48;;;;;;;0.20;0.20;;;19.20;99.90;;;;;;5051204;28;20157;-77
2023/06/21 03:46:14;;;;;;;0.20;0.20;;;19.30;99.90;;;;;;5046896;28;20434;-76
2023/06/21 03:48:39;;;;;;;0.20;0.20;;;19.30;99.90;;;;;;5051177;28;20087;-76
2023/06/21 03:51:05;;;;;;;0.20;0.20;;;19.20;99.90;;;;;;5047096;28;20040;-77
2023/06/21 03:53:31;;;;;;;0.20;0.20;;;19.20;99.90;;;;;;5067094;28;20640;-78
2023/06/21 03:55:56;;;;;;;0.20;0.20;;;19.20;99.90;;;;;;5037729;28;20056;-77
2023/06/21 03:58:22;;;;;;;0.20;0.20;;;19.20;99.90;;;;;;5053487;28;20056;-77
2023/06/21 04:00:47;;;;;;;0.20;0.20;;;19.20;99.90;;;;;;5050218;28;20507;-78
2023/06/21 04:03:13;;;;;;;0.20;0.20;;;19.20;99.90;;;;;;5036295;28;20483;-77
2023/06/21 04:05:39;;;;;;;0.20;0.20;;;19.20;99.90;;;;;;5069284;28;20118;-77
2023/06/21 04:08:04;;;;;;;0.20;0.20;;;19.20;99.90;;;;;;5049255;28;20044;-78
2023/06/21 04:10:30;;;;;;;0.20;0.20;;;19.20;99.90;;;;;;5053167;28;20051;-77
2023/06/21 04:12:56;;;;;;;0.20;0.20;;;19.20;99.90;;;;;;5063423;28;20040;-77
2023/06/21 04:15:21;;;;;;;0.20;0.20;;;19.20;99.90;;;;;;5048518;28;20056;-76
2023/06/21 04:17:49;;;;;;;0.20;0.20;;;19.20;99.90;;;;;;5045524;28;20051;-77
2023/06/21 04:20:15;;;;;;;0.20;0.20;;;19.20;99.90;;;;;;5045241;28;20147;-77
2023/06/21 04:22:42;;;;;;;0.35;0.30;;;19.20;99.90;;;;;;5059462;28;20527;-77
2023/06/21 04:25:11;;;;;;;0.20;0.20;;;19.20;99.90;;;;;;5062814;28;20070;-77
2023/06/21 04:27:39;;;;;;;0.20;0.20;;;19.20;99.90;;;;;;5050495;28;20069;-77
2023/06/21 04:30:09;;;;;;;0.20;0.20;;;19.30;99.90;;;;;;5059231;28;20379;-78
2023/06/21 04:32:34;;;;;;;0.20;0.20;;;19.30;99.90;;;;;;5049223;28;20060;-77
2023/06/21 04:35:01;;;;;;;0.20;0.20;;;19.30;99.90;;;;;;5062024;28;20056;-77
2023/06/21 04:37:28;;;;;;;0.20;0.20;;;19.30;99.90;;;;;;5060355;28;20040;-78
2023/06/21 04:39:54;;;;;;;0.20;0.20;;;19.30;99.90;;;;;;5047756;28;20128;-78
2023/06/21 04:42:20;;;;;;;0.20;0.20;;;19.30;99.90;;;;;;5064768;28;20461;-78
2023/06/21 04:44:49;;;;;;;0.20;0.20;;;19.30;99.90;;;;;;5069499;28;20485;-77
2023/06/21 04:47:16;;;;;;;0.20;0.20;;;19.30;99.90;;;;;;5040317;28;20120;-78
2023/06/21 04:49:42;;;;;;;0.20;0.20;;;19.30;99.90;;;;;;5044586;28;20483;-78
2023/06/21 04:52:09;;;;;;;0.20;0.20;;;19.30;99.90;;;;;;5065659;28;20037;-79
2023/06/21 04:54:37;;;;;;;0.20;0.20;;;19.30;99.90;;;;;;5064840;28;20492;-78
2023/06/21 04:57:12;;;;;;;0.20;0.20;;;19.30;99.90;;;;;;5047710;28;20076;-78
2023/06/21 04:59:38;;;;;;;0.20;0.20;;;19.40;99.90;;;;;;5067714;28;20652;-78
2023/06/21 05:02:04;;;;;;;0.20;0.20;;;19.40;99.90;;;;;;5054137;28;20041;-78
2023/06/21 05:04:30;;;;;;;0.20;0.20;;;19.40;99.90;;;;;;5039227;28;20053;-78
2023/06/21 05:06:56;;;;;;;0.20;0.20;;;19.40;99.90;;;;;;5033121;28;20370;-78
2023/06/21 05:09:22;;;;;;;0.20;0.20;;;19.40;99.90;;;;;;5061460;28;20040;-78
2023/06/21 05:11:47;;;;;;;0.20;0.20;;;19.40;99.90;;;;;;5037964;28;20045;-78
2023/06/21 05:14:13;;;;;;;0.20;0.20;;;19.40;99.90;;;;;;5034237;28;20056;-78
2023/06/21 05:16:40;;;;;;;0.20;0.20;;;19.40;99.90;;;;;;5041896;28;20076;-78
2023/06/21 05:19:07;;;;;;;0.20;0.20;;;19.40;99.90;;;;;;5038253;28;20049;-79
2023/06/21 05:21:33;;;;;;;0.20;0.20;;;19.40;99.90;;;;;;5044780;28;20105;-78
2023/06/21 05:23:58;;;;;;;0.20;0.20;;;19.40;99.90;;;;;;5060579;28;20649;-79
2023/06/21 05:26:24;;;;;;;0.20;0.20;;;19.40;99.90;;;;;;5044004;28;20079;-77
2023/06/21 05:28:50;;;;;;;0.20;0.20;;;19.50;99.90;;;;;;5061619;28;20059;-79
2023/06/21 05:31:15;;;;;;;0.20;0.20;;;19.50;99.90;;;;;;5044706;28;20094;-79
2023/06/21 05:33:41;;;;;;;0.20;0.20;;;19.40;99.90;;;;;;5045656;28;20119;-78
2023/06/21 05:36:07;;;;;;;0.20;0.20;;;19.50;99.90;;;;;;5045453;28;20044;-79
2023/06/21 05:38:32;;;;;;;0.20;0.20;;;19.50;99.90;;;;;;5068315;28;20435;-79
2023/06/21 05:40:58;;;;;;;0.20;0.20;;;19.50;99.90;;;;;;5042470;28;20037;-78
2023/06/21 05:43:24;;;;;;;0.20;0.20;;;19.50;99.90;;;;;;5071957;28;20068;-77
2023/06/21 05:45:49;;;;;;;0.20;0.20;;;19.50;99.90;;;;;;5041422;28;20056;-78
2023/06/21 05:48:15;;;;;;;0.10;0.10;;;19.50;99.90;;;;;;5064075;28;20490;-78
2023/06/21 05:50:41;;;;;;;0.20;0.20;;;19.50;99.90;;;;;;5068861;28;20432;-78
2023/06/21 05:53:07;;;;;;;0.20;0.20;;;19.50;99.90;;;;;;5037633;28;20048;-78
2023/06/21 05:55:32;;;;;;;0.20;0.20;;;19.50;99.90;;;;;;5059432;28;20619;-78
2023/06/21 05:57:58;;;;;;;0.20;0.20;;;19.50;99.90;;;;;;5042469;28;20037;-78
2023/06/21 06:00:24;;;;;;;0.20;0.20;;;19.50;99.90;;;;;;5046742;28;20040;-78
2023/06/21 06:02:49;;;;;;;0.28;0.28;;;19.50;99.90;;;;;;5048173;28;20044;-78
2023/06/21 06:05:16;;;;;;;0.20;0.20;;;19.60;99.90;;;;;;5041409;28;20047;-77
2023/06/21 06:07:42;;;;;;;0.20;0.20;;;19.60;99.90;;;;;;5072229;28;20117;-77
2023/06/21 06:10:08;;;;;;;0.20;0.20;;;19.60;99.90;;;;;;5053764;28;20132;-78
2023/06/21 06:12:34;;;;;;;0.10;0.10;;;19.60;99.90;;;;;;5068489;28;20484;-78
2023/06/21 06:15:00;;;;;;;0.20;0.20;;;19.60;99.90;;;;;;5043052;28;20060;-78
2023/06/21 06:17:25;;;;;;;0.20;0.20;;;19.70;99.90;;;;;;5066277;28;20093;-77
2023/06/21 06:19:51;;;;;;;0.20;0.20;;;19.70;99.90;;;;;;5047640;28;20063;-79
2023/06/21 06:22:17;;;;;;;0.20;0.20;;;19.70;99.90;;;;;;5068072;28;20037;-78
2023/06/21 06:24:42;;;;;;;0.20;0.20;;;19.70;99.90;;;;;;5038254;28;20091;-77
2023/06/21 06:27:08;;;;;;;0.10;0.10;;;19.80;99.90;;;;;;5051778;28;20048;-76
2023/06/21 06:29:34;;;;;;;0.20;0.20;;;19.80;99.90;;;;;;5067414;28;20049;-74
2023/06/21 06:31:59;;;;;;;0.20;0.20;;;19.80;99.90;;;;;;5049385;28;20052;-75
2023/06/21 06:34:25;;;;;;;0.20;0.20;;;19.80;99.90;;;;;;5038263;28;20056;-76
2023/06/21 06:36:51;;;;;;;0.20;0.20;;;19.80;99.90;;;;;;5046976;28;20106;-76
2023/06/21 06:39:16;;;;;;;0.20;0.20;;;19.80;99.90;;;;;;5063606;28;20083;-76
2023/06/21 06:41:42;;;;;;;0.20;0.20;;;19.80;99.90;;;;;;5064639;28;20064;-76
2023/06/21 06:44:07;;;;;;;0.20;0.20;;;19.80;99.90;;;;;;5038951;28;20037;-76
2023/06/21 06:46:34;;;;;;;0.20;0.20;;;19.80;99.90;;;;;;5072338;28;20432;-76
2023/06/21 06:48:59;;;;;;;0.20;0.20;;;19.90;99.90;;;;;;5069099;28;20052;-76
2023/06/21 06:51:25;;;;;;;0.15;0.15;;;20.00;99.90;;;;;;5054353;28;20039;-75
2023/06/21 06:53:51;;;;;;;0.10;0.10;;;20.00;99.90;;;;;;5051673;28;20424;-75
2023/06/21 06:56:16;;;;;;;0.15;0.15;;;20.00;99.90;;;;;;5053286;28;20048;-75
2023/06/21 06:58:42;;;;;;;0.20;0.20;;;20.10;99.90;;;;;;5048007;28;20388;-75
2023/06/21 07:01:08;;;;;;;0.38;0.25;;;20.10;99.90;;;;;;5034120;28;20041;-75
2023/06/21 07:03:34;;;;;;;0.20;0.20;;;20.10;99.90;;;;;;5049412;28;20053;-76
2023/06/21 07:06:00;;;;;;;0.20;0.20;;;20.10;99.90;;;;;;5067813;28;20079;-76
2023/06/21 07:08:26;;;;;;;0.20;0.20;;;20.20;99.90;;;;;;5071512;28;20083;-75
2023/06/21 07:10:52;;;;;;;0.20;0.20;;;20.30;99.90;;;;;;5053144;28;20048;-76
2023/06/21 07:13:18;;;;;;;0.20;0.20;;;20.30;99.90;;;;;;5049009;28;20053;-79
2023/06/21 07:15:44;;;;;;;0.20;0.20;;;20.40;99.90;;;;;;5060118;28;20049;-77
2023/06/21 07:18:11;;;;;;;0.20;0.20;;;20.40;99.90;;;;;;5059449;28;20037;-78
2023/06/21 07:20:37;;;;;;;0.10;0.10;;;20.50;99.90;;;;;;5052397;28;20044;-77
2023/06/21 07:23:03;;;;;;;0.20;0.20;;;20.50;99.90;;;;;;5070061;28;20477;-78
2023/06/21 07:25:29;;;;;;;0.15;0.15;;;20.50;99.90;;;;;;5052861;28;20049;-77
2023/06/21 07:27:55;;;;;;;0.20;0.20;;;20.50;99.90;;;;;;5048067;28;20041;-77
2023/06/21 07:30:22;;;;;;;0.20;0.20;;;20.60;99.90;;;;;;5052025;28;20076;-77
2023/06/21 07:32:48;;;;;;;0.20;0.20;;;20.60;99.90;;;;;;5041117;28;20045;-77
2023/06/21 07:35:14;;;;;;;0.20;0.20;;;20.60;99.90;;;;;;5041563;28;20080;-76
2023/06/21 07:37:42;;;;;;;0.20;0.20;;;20.70;99.90;;;;;;5059940;28;20081;-77
2023/06/21 07:40:09;;;;;;;0.20;0.20;;;20.70;99.90;;;;;;5066528;28;20045;-78
2023/06/21 07:42:35;;;;;;;0.20;0.20;;;20.80;99.90;;;;;;5053161;28;20044;-78
2023/06/21 07:45:01;;;;;;;0.20;0.20;;;20.80;99.90;;;;;;5041108;28;20049;-78
2023/06/21 07:47:27;;;;;;;0.15;0.15;;;20.90;99.90;;;;;;5056822;28;20384;-77
2023/06/21 07:49:53;;;;;;;0.20;0.20;;;20.90;99.90;;;;;;5034879;28;20119;-77
2023/06/21 07:52:19;;;;;;;0.20;0.20;;;20.90;99.90;;;;;;5039976;28;20500;-78
2023/06/21 07:54:47;;;;;;;0.20;0.20;;;20.90;99.90;;;;;;5031952;28;20049;-77
2023/06/21 07:57:15;;;;;;;0.20;0.20;;;20.90;99.90;;;;;;5033487;28;20072;-77
2023/06/21 07:59:40;;;;;;;0.20;0.20;;;21.00;99.90;;;;;;5031891;28;20102;-77
2023/06/21 08:02:06;;;;;;;0.20;0.20;;;21.00;99.90;;;;;;5035036;28;20478;-76
2023/06/21 08:04:32;;;;;;;0.20;0.20;;;21.00;99.90;;;;;;5059529;28;20098;-77
2023/06/21 08:06:57;;;;;;;0.20;0.20;;;21.00;99.90;;;;;;5060976;28;20033;-77
2023/06/21 08:09:23;;;;;;;0.20;0.20;;;21.00;99.90;;;;;;5042717;28;20063;-77
2023/06/21 08:11:48;;;;;;;0.20;0.20;;;21.10;99.90;;;;;;5048983;28;20520;-78
2023/06/21 08:14:14;;;;;;;0.20;0.20;;;21.10;99.90;;;;;;5039611;28;20060;-81
2023/06/21 08:16:40;;;;;;;0.20;0.20;;;21.10;99.90;;;;;;5052226;28;20538;-81
2023/06/21 08:19:06;;;;;;;0.20;0.20;;;21.20;99.90;;;;;;5042594;28;20036;-80
2023/06/21 08:21:32;;;;;;;0.20;0.20;;;21.10;99.90;;;;;;5037192;28;20044;-79
2023/06/21 08:23:58;;;;;;;0.20;0.20;;;21.20;99.90;;;;;;5050388;28;20037;-79
2023/06/21 08:26:23;;;;;;;0.20;0.20;;;21.20;99.90;;;;;;5032247;28;20047;-80
2023/06/21 08:28:49;;;;;;;0.20;0.20;;;21.30;99.90;;;;;;5050257;28;20053;-80
2023/06/21 08:31:15;;;;;;;0.20;0.20;;;21.30;99.90;;;;;;5050790;28;20384;-80
2023/06/21 08:33:41;;;;;;;0.20;0.20;;;21.30;99.90;;;;;;5055680;28;20476;-80
2023/06/21 08:36:06;;;;;;;0.30;0.30;;;21.30;99.90;;;;;;5051379;28;20353;-80
2023/06/21 08:38:33;;;;;;;0.20;0.20;;;21.40;99.90;;;;;;5069492;28;20044;-79
2023/06/21 08:41:02;;;;;;;0.20;0.20;;;21.40;99.90;;;;;;5069671;28;20045;-79
2023/06/21 08:43:28;;;;;;;0.30;0.30;;;21.50;99.90;;;;;;5069919;28;20074;-80
2023/06/21 08:45:55;;;;;;;0.20;0.20;;;21.50;99.90;;;;;;5069622;28;20063;-79
2023/06/21 08:48:29;;;;;;;0.20;0.20;;;21.50;99.90;;;;;;5062455;28;20046;-80
2023/06/21 08:50:56;;;;;;;0.20;0.20;;;21.70;99.90;;;;;;5050392;28;20136;-80
2023/06/21 08:53:31;;;;;;;0.20;0.20;;;21.60;99.90;;;;;;5050201;28;20106;-79
2023/06/21 08:55:59;;;;;;;0.20;0.20;;;21.60;99.90;;;;;;5031386;28;20135;-80
2023/06/21 08:58:27;;;;;;;0.30;0.30;;;21.70;99.90;;;;;;5032129;28;20041;-80
2023/06/21 09:00:58;;;;;;;0.20;0.20;;;21.70;99.90;;;;;;5032092;28;20070;-79
2023/06/21 09:03:36;;;;;;;0.20;0.20;;;21.80;99.90;;;;;;5030510;28;20932;-79
2023/06/21 09:06:15;;;;;;;0.20;0.20;;;21.90;99.90;;;;;;5049540;28;20124;-80
2023/06/21 09:08:41;;;;;;;0.20;0.20;;;21.90;99.90;;;;;;5048860;28;20060;-80
2023/06/21 09:11:11;;;;;;;0.20;0.20;;;22.00;99.90;;;;;;5032283;28;20183;-79
2023/06/21 09:13:39;;;;;;;0.20;0.20;;;22.10;99.90;;;;;;5030677;28;20572;-80
2023/06/21 09:16:08;;;;;;;0.20;0.20;;;22.10;99.90;;;;;;5057699;28;20048;-81
2023/06/21 09:18:35;;;;;;;0.20;0.20;;;22.10;99.90;;;;;;5046404;28;20098;-80
2023/06/21 09:21:02;;;;;;;0.20;0.20;;;22.20;99.90;;;;;;5036768;28;20416;-79
2023/06/21 09:23:28;;;;;;;0.20;0.20;;;22.30;99.90;;;;;;5031638;28;20045;-80
2023/06/21 09:25:57;;;;;;;0.20;0.20;;;22.30;99.90;;;;;;5056746;28;20099;-80
2023/06/21 09:28:23;;;;;;;0.20;0.20;;;22.30;99.90;;;;;;5031606;28;20052;-79
2023/06/21 09:30:49;;;;;;;0.20;0.20;;;22.40;99.90;;;;;;5032490;28;20037;-80
2023/06/21 09:33:15;;;;;;;0.20;0.20;;;22.50;99.90;;;;;;5040681;28;20648;-79
2023/06/21 09:35:43;;;;;;;0.20;0.20;;;22.40;99.90;;;;;;5057588;28;20036;-80
2023/06/21 09:38:26;;;;;;;0.20;0.20;;;22.60;99.90;;;;;;5040767;28;20082;-80
2023/06/21 09:40:52;;;;;;;0.20;0.20;;;22.60;99.90;;;;;;5067327;28;20045;-79
2023/06/21 09:43:20;;;;;;;0.20;0.20;;;22.60;99.90;;;;;;5051744;28;20072;-79
2023/06/21 09:46:07;;;;;;;0.20;0.20;;;22.70;99.90;;;;;;5068651;28;20567;-79
2023/06/21 09:48:34;;;;;;;0.20;0.20;;;22.70;99.90;;;;;;5063550;28;20127;-79
2023/06/21 09:51:12;;;;;;;0.20;0.20;;;22.80;99.90;;;;;;5048713;28;20037;-79
2023/06/21 09:53:43;;;;;;;0.47;0.30;;;22.80;99.90;;;;;;5067794;28;20563;-79
2023/06/21 09:56:09;;;;;;;0.20;0.20;;;22.90;99.90;;;;;;5065345;28;20045;-80
2023/06/21 09:58:35;;;;;;;0.20;0.20;;;22.90;99.90;;;;;;5035919;28;20051;-79
2023/06/21 10:01:07;;;;;;;0.20;0.20;;;23.00;99.90;;;;;;5032898;28;20049;-79
2023/06/21 10:03:33;;;;;;;0.20;0.20;;;23.00;99.90;;;;;;5038974;28;20056;-79
2023/06/21 10:06:01;;;;;;;0.20;0.20;;;23.10;99.90;;;;;;5031626;28;20049;-79
2023/06/21 10:08:36;;;;;;;0.20;0.20;;;23.10;99.90;;;;;;5047238;28;20040;-79
2023/06/21 10:11:02;;;;;;;0.30;0.30;;;23.20;99.90;;;;;;5050626;28;20048;-79
2023/06/21 10:13:32;;;;;;;0.20;0.20;;;23.20;99.90;;;;;;5068140;28;20060;-79
2023/06/21 10:16:00;;;;;;;0.20;0.20;;;23.30;99.90;;;;;;5062554;28;20044;-80
2023/06/21 10:18:27;;;;;;;0.20;0.20;;;23.30;99.90;;;;;;5059620;28;20032;-80
2023/06/21 10:21:07;;;;;;;0.20;0.20;;;23.30;99.90;;;;;;5052203;28;20042;-79
2023/06/21 10:23:37;;;;;;;0.20;0.20;;;23.30;99.90;;;;;;5052093;28;20044;-78
2023/06/21 10:26:05;;;;;;;0.20;0.20;;;23.40;99.90;;;;;;5072375;28;20410;-78
2023/06/21 10:28:36;;;;;;;0.20;0.20;;;23.40;99.90;;;;;;5072661;28;20044;-78
2023/06/21 10:31:03;;;;;;;0.20;0.20;;;23.40;99.90;;;;;;5040569;28;20102;-79
2023/06/21 10:33:32;;;;;;;0.20;0.20;;;23.50;99.90;;;;;;5045945;28;20484;-79
2023/06/21 10:36:01;;;;;;;0.20;0.20;;;23.60;99.90;;;;;;5061219;28;20041;-79
2023/06/21 10:38:47;;;;;;;0.20;0.20;;;23.70;99.90;;;;;;5054749;28;20045;-79
2023/06/21 10:41:15;;;;;;;0.20;0.20;;;23.70;99.90;;;;;;5035112;28;20052;-79
2023/06/21 10:43:42;;;;;;;0.20;0.20;;;23.70;99.90;;;;;;5041788;28;20155;-79
2023/06/21 10:46:10;;;;;;;0.20;0.20;;;23.80;99.90;;;;;;5060402;28;20135;-79
2023/06/21 10:48:37;;;;;;;0.20;0.20;;;23.90;99.90;;;;;;5084761;28;20044;-79
2023/06/21 10:51:04;;;;;;;0.20;0.20;;;23.80;99.90;;;;;;5041298;28;20048;-79
2023/06/21 10:53:34;;;;;;;0.22;0.22;;;23.90;99.90;;;;;;5054131;28;20385;-79
2023/06/21 10:56:05;;;;;;;0.20;0.20;;;23.90;99.90;;;;;;5070331;28;20048;-79
2023/06/21 10:58:31;;;;;;;;;;;24.00;99.90;;;;;;5048405;28;20477;-80
2023/06/21 11:00:57;;;;;;;0.22;0.22;;;24.00;99.90;;;;;;5050086;28;20402;-79
2023/06/21 11:03:25;;;;;;;0.20;0.20;;;24.10;99.90;;;;;;5061166;28;20040;-81
2023/06/21 11:06:23;;;;;;;0.20;0.20;;;24.20;99.90;;;;;;5037953;28;20032;-79
2023/06/21 11:08:49;;;;;;;0.20;0.20;;;24.20;99.90;;;;;;5038021;28;20053;-80
2023/06/21 11:11:32;;;;;;;0.20;0.20;;;24.30;99.90;;;;;;5047431;28;20193;-80
2023/06/21 11:14:05;;;;;;;0.20;0.20;;;24.30;99.90;;;;;;5060574;28;20538;-79
2023/06/21 11:16:34;;;;;;;0.20;0.20;;;24.30;99.90;;;;;;5058838;28;20040;-79
2023/06/21 11:19:08;;;;;;;0.20;0.20;;;24.30;99.90;;;;;;5047448;28;20051;-79
2023/06/21 11:21:45;;;;;;;0.20;0.20;;;24.30;99.90;;;;;;5071338;28;20415;-80
2023/06/21 11:24:19;;;;;;;0.20;0.20;;;24.40;99.90;;;;;;5053031;28;20363;-79
2023/06/21 11:27:02;;;;;;;0.20;0.20;;;24.40;99.90;;;;;;5053659;28;20037;-80
2023/06/21 11:29:34;;;;;;;0.20;0.20;;;24.40;99.90;;;;;;5052605;28;20437;-80
2023/06/21 11:32:15;;;;;;;0.20;0.20;;;24.30;99.90;;;;;;5045894;28;20044;-81
2023/06/21 11:34:57;;;;;;;0.20;0.20;;;24.40;99.90;;;;;;5046526;28;20060;-80
2023/06/21 11:37:44;;;;;;;0.20;0.20;;;24.50;99.90;;;;;;5052987;28;20048;-80
2023/06/21 11:40:15;;;;;;;0.20;0.20;;;24.60;99.90;;;;;;5069787;28;20076;-80
2023/06/21 11:42:46;;;;;;;0.20;0.20;;;24.70;99.90;;;;;;5043357;28;20503;-81
2023/06/21 11:45:35;;;;;;;0.20;0.20;;;24.90;99.90;;;;;;5047174;28;20126;-80
2023/06/21 11:48:08;;;;;;;0.20;0.20;;;25.10;99.90;;;;;;5035868;28;20105;-82
2023/06/21 11:50:45;;;;;;;0.20;0.20;;;25.20;99.90;;;;;;5069670;28;20049;-80
2023/06/21 11:53:12;;;;;;;0.20;0.20;;;25.30;99.90;;;;;;5053930;28;20416;-81
2023/06/21 11:55:38;;;;;;;0.40;0.25;;;25.40;99.90;;;;;;5051854;28;20053;-80
2023/06/21 11:58:06;;;;;;;0.20;0.20;;;25.50;99.90;;;;;;5050176;28;20056;-81
2023/06/21 12:00:32;;;;;;;0.20;0.20;;;25.60;99.90;;;;;;5048602;28;20424;-80
2023/06/21 12:02:57;;;;;;;0.20;0.20;;;25.70;99.90;;;;;;5045332;28;20040;-80
2023/06/21 12:05:23;;;;;;;0.20;0.20;;;25.70;99.90;;;;;;5046510;28;20064;-81
2023/06/21 12:07:49;;;;;;;0.20;0.20;;;25.70;99.90;;;;;;5057044;28;20639;-81
2023/06/21 12:10:15;;;;;;;0.20;0.20;;;25.70;99.90;;;;;;5067957;28;20392;-81
2023/06/21 12:12:41;;;;;;;0.25;0.25;;;25.70;99.90;;;;;;5051937;28;20040;-80
2023/06/21 12:15:06;;;;;;;0.20;0.20;;;25.60;99.90;;;;;;5046987;28;20722;-81
2023/06/21 12:17:32;;;;;;;0.20;0.20;;;25.50;99.90;;;;;;5034414;28;20674;-81
2023/06/21 12:20:06;;;;;;;0.20;0.20;;;25.40;99.90;;;;;;5047094;28;20037;-81
2023/06/21 12:22:32;;;;;;;0.20;0.20;;;25.30;99.90;;;;;;5041352;28;20030;-80
2023/06/21 12:24:58;;;;;;;0.20;0.20;;;25.40;99.90;;;;;;5049626;28;20127;-82
2023/06/21 12:27:23;;;;;;;0.20;0.20;;;25.50;99.90;;;;;;5051367;28;20065;-81
2023/06/21 12:29:52;;;;;;;0.20;0.20;;;25.60;99.90;;;;;;5043242;28;20041;-81
2023/06/21 12:32:21;;;;;;;0.20;0.20;;;25.80;99.90;;;;;;5048302;28;20037;-81
2023/06/21 12:34:47;;;;;;;0.20;0.20;;;25.90;99.90;;;;;;5039277;28;20045;-81
2023/06/21 12:37:23;;;;;;;0.20;0.20;;;26.10;99.90;;;;;;5041842;28;20037;-81
2023/06/21 12:39:52;;;;;;;0.20;0.20;;;26.20;99.90;;;;;;5047220;28;20052;-81
2023/06/21 12:42:20;;;;;;;0.20;0.20;;;26.10;99.90;;;;;;5048349;28;20095;-81
2023/06/21 12:44:46;;;;;;;0.20;0.20;;;26.20;99.90;;;;;;5039812;28;20045;-81
2023/06/21 12:47:12;;;;;;;0.47;0.47;;;26.20;99.90;;;;;;5043152;28;20421;-81
2023/06/21 12:49:37;;;;;;;0.20;0.20;;;26.20;99.90;;;;;;5045959;28;20094;-81
2023/06/21 12:52:03;;;;;;;0.20;0.20;;;26.10;99.90;;;;;;5044852;28;20072;-81